Time;durP1;ratioP1;P1;durP2;ratioP2;P2;SDS_P1;SDS_P2;PMS_P1;PMS_P2;Temp;Humidity;BMP_temperature;BMP_pressure;BME280_temperature;BME280_humidity;BME280_pressure;Samples;Min_cycle;Max_cycle;Signal;HPM_P1;HPM_P2
2023/03/03 00:03:03;;;;;;;21.60;8.70;;;;;;;-2.15;100.00;100230.33;109841;1248;60259;-68
2023/03/03 00:05:52;;;;;;;20.60;7.90;;;;;;;-2.14;100.00;100229.13;109664;1248;60159;-69
2023/03/03 00:08:40;;;;;;;20.20;8.40;;;;;;;-2.14;100.00;100219.37;109851;1248;73953;-72
2023/03/03 00:11:28;;;;;;;17.60;7.00;;;;;;;-2.13;100.00;100215.71;109949;1248;67770;-70
2023/03/03 00:14:32;;;;;;;18.80;7.10;;;;;;;-2.15;100.00;100197.34;109026;1248;1002132;-70
2023/03/03 00:17:27;;;;;;;19.50;7.20;;;;;;;-2.13;100.00;100196.91;109617;1248;58843;-70
2023/03/03 00:20:38;;;;;;;19.40;7.20;;;;;;;-2.13;100.00;100188.06;109837;1248;60046;-70
2023/03/03 00:23:35;;;;;;;19.80;7.80;;;;;;;-2.14;100.00;100188.08;109811;1248;72384;-70
2023/03/03 00:26:33;;;;;;;18.70;7.00;;;;;;;-2.14;100.00;100182.17;109719;1248;67606;-69
2023/03/03 00:29:38;;;;;;;20.80;8.40;;;;;;;-2.15;100.00;100175.39;109771;1248;71365;-68
2023/03/03 00:32:54;;;;;;;17.70;6.40;;;;;;;-2.16;100.00;100174.73;109677;1248;58411;-69
2023/03/03 00:35:43;;;;;;;17.80;6.90;;;;;;;-2.17;100.00;100186.08;109905;1248;61031;-71
2023/03/03 00:38:35;;;;;;;15.90;5.80;;;;;;;-2.19;100.00;100180.73;109673;1248;72753;-68
2023/03/03 00:41:26;;;;;;;17.60;6.60;;;;;;;-2.22;100.00;100175.23;109856;1248;69024;-70
2023/03/03 00:44:33;;;;;;;17.50;6.60;;;;;;;-2.23;100.00;100171.95;109753;1253;72811;-69
2023/03/03 00:47:37;;;;;;;21.20;7.40;;;;;;;-2.23;100.00;100175.61;109867;1248;58586;-70
2023/03/03 00:50:33;;;;;;;14.70;6.20;;;;;;;-2.23;100.00;100183.59;109693;1253;60413;-72
2023/03/03 00:53:24;;;;;;;14.60;5.60;;;;;;;-2.21;100.00;100180.25;109902;1248;73868;-70
2023/03/03 00:56:13;;;;;;;13.50;5.30;;;;;;;-2.23;100.00;100175.79;109849;1248;69199;-70
2023/03/03 00:59:01;;;;;;;13.90;6.10;;;;;;;-2.19;100.00;100178.11;109903;1248;72397;-70
2023/03/03 01:01:49;;;;;;;16.40;6.50;;;;;;;-2.17;100.00;100175.11;109842;1252;58082;-70
2023/03/03 01:04:38;;;;;;;13.70;5.40;;;;;;;-2.18;100.00;100166.64;109711;1248;59855;-70
2023/03/03 01:07:26;;;;;;;14.90;5.60;;;;;;;-2.12;100.00;100159.69;109074;1248;1002310;-69
2023/03/03 01:10:15;;;;;;;17.50;7.20;;;;;;;-2.07;100.00;100160.98;109874;1248;67866;-68
2023/03/03 01:13:04;;;;;;;15.80;7.00;;;;;;;-2.04;100.00;100166.47;109887;1248;73559;-68
2023/03/03 01:15:53;;;;;;;13.40;5.20;;;;;;;-2.00;100.00;100169.50;109646;1248;58922;-71
2023/03/03 01:18:41;;;;;;;13.60;5.50;;;;;;;-1.97;100.00;100168.20;109141;1248;1002832;-72
2023/03/03 01:21:29;;;;;;;13.00;4.70;;;;;;;-1.94;100.00;100159.42;109826;1248;74612;-70
2023/03/03 01:24:17;;;;;;;13.40;5.90;;;;;;;-1.90;100.00;100152.73;109913;1248;69047;-69
2023/03/03 01:27:05;;;;;;;14.50;5.90;;;;;;;-1.87;100.00;100153.54;109894;1248;70808;-71
2023/03/03 01:29:53;;;;;;;12.10;4.70;;;;;;;-1.84;100.00;100152.06;108875;1251;1002299;-71
2023/03/03 01:32:41;;;;;;;11.90;5.40;;;;;;;-1.80;100.00;100147.63;109887;1248;60017;-70
2023/03/03 01:35:29;;;;;;;10.90;4.00;;;;;;;-1.75;100.00;100149.56;109937;1248;74116;-68
2023/03/03 01:38:17;;;;;;;13.50;5.50;;;;;;;-1.70;100.00;100145.27;109864;1248;68623;-68
2023/03/03 01:41:05;;;;;;;14.60;6.50;;;;;;;-1.65;100.00;100151.05;109850;1248;73825;-69
2023/03/03 01:43:53;;;;;;;14.50;6.00;;;;;;;-1.64;100.00;100143.20;109752;1248;58845;-69
2023/03/03 01:47:32;;;;;;;14.30;6.60;;;;;;;-1.55;100.00;100151.84;109934;1248;60076;-69
2023/03/03 01:50:47;;;;;;;12.70;5.50;;;;;;;-1.49;100.00;100148.20;109278;1256;73766;-70
2023/03/03 01:53:50;;;;;;;16.10;6.40;;;;;;;-1.45;100.00;100145.32;109284;1257;69125;-70
2023/03/03 01:56:38;;;;;;;17.90;6.90;;;;;;;-1.41;100.00;100142.08;109218;1256;72694;-69
2023/03/03 01:59:41;;;;;;;15.60;6.90;;;;;;;-1.40;100.00;100138.72;109229;1255;58108;-70
2023/03/03 02:02:31;;;;;;;15.50;6.90;;;;;;;-1.35;100.00;100134.61;109211;1255;60119;-68
2023/03/03 02:05:19;;;;;;;16.10;7.00;;;;;;;-1.31;100.00;100136.75;109245;1257;75097;-68
2023/03/03 02:08:15;;;;;;;14.60;6.50;;;;;;;-1.28;100.00;100134.57;109312;1257;68456;-70
2023/03/03 02:11:05;;;;;;;13.30;5.50;;;;;;;-1.24;100.00;100130.30;109201;1256;71400;-68
2023/03/03 02:13:53;;;;;;;15.40;6.50;;;;;;;-1.21;100.00;100126.38;109122;1255;58098;-69
2023/03/03 02:16:43;;;;;;;19.40;7.80;;;;;;;-1.18;100.00;100130.48;109209;1255;60325;-69
2023/03/03 02:19:51;;;;;;;16.20;6.40;;;;;;;-1.16;100.00;100120.48;109325;1257;73876;-69
2023/03/03 02:22:52;;;;;;;15.90;6.70;;;;;;;-1.13;100.00;100115.70;109301;1255;67867;-70
2023/03/03 02:25:55;;;;;;;18.30;8.00;;;;;;;-1.09;100.00;100116.82;109713;1248;72709;-69
2023/03/03 02:28:48;;;;;;;11.70;4.70;;;;;;;-1.05;100.00;100114.60;109660;1248;60041;-70
2023/03/03 02:31:37;;;;;;;18.40;7.20;;;;;;;-1.02;100.00;100115.05;109866;1248;60109;-70
2023/03/03 02:34:25;;;;;;;18.80;8.80;;;;;;;-0.99;100.00;100113.04;109693;1248;73989;-69
2023/03/03 02:37:14;;;;;;;16.20;7.80;;;;;;;-0.96;100.00;100118.69;109870;1248;67913;-69
2023/03/03 02:40:02;;;;;;;19.30;8.40;;;;;;;-0.94;100.00;100125.25;109889;1248;72818;-69
2023/03/03 02:42:52;;;;;;;17.20;7.20;;;;;;;-0.92;100.00;100118.05;109653;1248;58087;-69
2023/03/03 02:45:44;;;;;;;15.90;7.00;;;;;;;-0.89;100.00;100124.25;109918;1248;59162;-69
2023/03/03 02:48:32;;;;;;;16.60;6.60;;;;;;;-0.86;100.00;100117.36;109814;1248;71633;-70
2023/03/03 02:51:20;;;;;;;17.20;7.50;;;;;;;-0.81;100.00;100116.70;109816;1248;67763;-70
2023/03/03 02:54:10;;;;;;;18.90;8.40;;;;;;;-0.78;100.00;100112.58;109859;1248;72686;-70
2023/03/03 02:56:59;;;;;;;18.00;7.30;;;;;;;-0.79;100.00;100101.65;109686;1248;59071;-70
2023/03/03 02:59:47;;;;;;;18.40;7.70;;;;;;;-0.73;100.00;100106.15;109739;1248;60467;-70
2023/03/03 03:02:36;;;;;;;17.10;8.00;;;;;;;-0.69;100.00;100106.40;107029;1252;3213977;-69
2023/03/03 03:05:25;;;;;;;19.60;8.70;;;;;;;-0.64;100.00;100109.75;109256;1253;67938;-70
2023/03/03 03:08:14;;;;;;;14.90;6.50;;;;;;;-0.59;100.00;100106.11;109302;1254;72797;-69
2023/03/03 03:11:04;;;;;;;16.10;7.80;;;;;;;-0.57;100.00;100106.37;109289;1254;58538;-69
2023/03/03 03:13:52;;;;;;;16.00;7.70;;;;;;;-0.54;100.00;100103.48;109163;1254;60181;-70
2023/03/03 03:16:41;;;;;;;16.70;7.20;;;;;;;-0.51;100.00;100099.55;109284;1254;74503;-71
2023/03/03 03:19:30;;;;;;;16.40;6.80;;;;;;;-0.47;100.00;100099.11;109270;1254;67907;-70
2023/03/03 03:22:20;;;;;;;14.90;7.00;;;;;;;-0.44;100.00;100100.92;109281;1254;72307;-70
2023/03/03 03:25:09;;;;;;;15.20;7.20;;;;;;;-0.41;100.00;100100.29;109274;1254;58721;-69
2023/03/03 03:27:57;;;;;;;16.30;7.00;;;;;;;-0.37;100.00;100093.89;109193;1254;58718;-69
2023/03/03 03:30:45;;;;;;;16.10;7.80;;;;;;;-0.33;100.00;100093.77;109287;1254;73538;-73
2023/03/03 03:33:33;;;;;;;14.50;6.30;;;;;;;-0.29;100.00;100083.54;109301;1254;69002;-69
2023/03/03 03:36:21;;;;;;;15.60;7.10;;;;;;;-0.27;100.00;100088.02;109201;1254;72787;-70
2023/03/03 03:39:10;;;;;;;16.00;7.20;;;;;;;-0.24;100.00;100084.07;109438;1252;59013;-71
2023/03/03 03:42:00;;;;;;;16.70;7.50;;;;;;;-0.20;100.00;100086.88;109705;1248;59013;-69
2023/03/03 03:44:49;;;;;;;15.00;6.50;;;;;;;-0.17;100.00;100092.56;109929;1247;72466;-67
2023/03/03 03:47:38;;;;;;;15.10;6.20;;;;;;;-0.14;100.00;100086.67;108988;1248;1002985;-70
2023/03/03 03:50:26;;;;;;;15.20;6.40;;;;;;;-0.11;100.00;100091.14;109746;1249;72725;-71
2023/03/03 03:53:16;;;;;;;12.10;4.90;;;;;;;-0.10;100.00;100097.20;109642;1249;59895;-71
2023/03/03 03:56:05;;;;;;;16.50;6.20;;;;;;;-0.07;100.00;100088.73;109707;1250;58914;-69
2023/03/03 03:58:53;;;;;;;13.80;6.10;;;;;;;-0.02;100.00;100079.15;109726;1250;75104;-71
2023/03/03 04:01:41;;;;;;;15.90;7.10;;;;;;;-0.00;100.00;100072.11;109652;1250;66664;-70
2023/03/03 04:04:29;;;;;;;18.50;8.60;;;;;;;0.01;100.00;100069.45;109642;1250;71243;-70
2023/03/03 04:07:18;;;;;;;19.30;8.40;;;;;;;0.05;100.00;100068.46;109682;1249;58667;-71
2023/03/03 04:10:07;;;;;;;16.30;7.30;;;;;;;0.09;100.00;100073.91;109646;1252;61103;-68
2023/03/03 04:12:55;;;;;;;18.50;8.20;;;;;;;0.11;100.00;100077.14;109664;1249;73898;-68
2023/03/03 04:15:44;;;;;;;16.10;7.70;;;;;;;0.12;100.00;100074.66;109767;1248;66360;-70
2023/03/03 04:18:33;;;;;;;14.40;6.80;;;;;;;0.14;100.00;100075.47;109685;1249;72758;-71
2023/03/03 04:21:21;;;;;;;17.80;7.30;;;;;;;0.15;100.00;100078.91;109716;1248;58693;-70
2023/03/03 04:24:08;;;;;;;17.20;7.80;;;;;;;0.19;100.00;100077.41;109793;1248;60174;-71
2023/03/03 04:26:57;;;;;;;17.70;7.70;;;;;;;0.20;100.00;100065.13;109731;1248;74044;-72
2023/03/03 04:29:45;;;;;;;13.80;6.30;;;;;;;0.22;100.00;100054.92;109834;1248;66653;-80
2023/03/03 04:32:34;;;;;;;15.20;6.50;;;;;;;0.25;100.00;100053.30;109627;1248;73762;-76
2023/03/03 04:35:22;;;;;;;13.70;5.20;;;;;;;0.27;100.00;100051.45;109709;1248;58140;-73
2023/03/03 04:38:11;;;;;;;15.40;6.30;;;;;;;0.26;100.00;100036.64;109746;1248;59988;-72
2023/03/03 04:41:00;;;;;;;14.50;6.70;;;;;;;0.28;100.00;100023.86;108305;1248;1002332;-72
2023/03/03 04:43:51;;;;;;;14.30;5.50;;;;;;;0.30;100.00;100031.63;109742;1248;67936;-72
2023/03/03 04:46:39;;;;;;;14.30;6.00;;;;;;;0.32;100.00;100034.00;109681;1248;71308;-71
2023/03/03 04:49:27;;;;;;;15.40;6.80;;;;;;;0.36;100.00;100036.65;109958;1247;58165;-72
2023/03/03 04:52:15;;;;;;;14.10;6.40;;;;;;;0.40;100.00;100031.63;110022;1247;58695;-71
2023/03/03 04:55:04;;;;;;;13.00;5.30;;;;;;;0.43;100.00;100017.36;110009;1246;73569;-70
2023/03/03 04:57:52;;;;;;;13.40;5.50;;;;;;;0.45;100.00;100013.46;109827;1246;66600;-70
2023/03/03 05:00:41;;;;;;;15.10;6.90;;;;;;;0.46;100.00;100013.61;109871;1247;72450;-71
2023/03/03 05:03:29;;;;;;;14.20;6.50;;;;;;;0.49;100.00;100016.80;109903;1246;58460;-71
2023/03/03 05:06:17;;;;;;;15.90;7.00;;;;;;;0.50;100.00;100026.71;109745;1246;60158;-72
2023/03/03 05:09:05;;;;;;;14.90;6.90;;;;;;;0.53;100.00;100031.34;109876;1246;74795;-69
2023/03/03 05:11:54;;;;;;;15.10;7.00;;;;;;;0.54;100.00;100032.52;109930;1246;68680;-72
2023/03/03 05:14:42;;;;;;;18.60;7.20;;;;;;;0.56;100.00;100027.88;109858;1246;72390;-71
2023/03/03 05:17:30;;;;;;;16.20;7.10;;;;;;;0.58;100.00;100030.98;110020;1246;58811;-69
2023/03/03 05:20:18;;;;;;;15.30;7.10;;;;;;;0.60;100.00;100034.04;110078;1246;60263;-71
2023/03/03 05:23:06;;;;;;;14.30;6.00;;;;;;;0.59;100.00;100037.92;110038;1246;74806;-72
2023/03/03 05:25:54;;;;;;;15.40;7.00;;;;;;;0.65;100.00;100044.47;109886;1246;67145;-72
2023/03/03 05:28:42;;;;;;;14.30;6.50;;;;;;;0.68;100.00;100033.55;109900;1246;73748;-73
2023/03/03 05:31:30;;;;;;;14.00;6.60;;;;;;;0.69;100.00;100031.95;109824;1246;58104;-72
2023/03/03 05:34:18;;;;;;;12.30;5.20;;;;;;;0.68;100.00;100038.08;110033;1246;58783;-72
2023/03/03 05:37:06;;;;;;;14.30;5.80;;;;;;;0.67;100.00;100041.09;110009;1246;73528;-71
2023/03/03 05:39:53;;;;;;;14.60;6.60;;;;;;;0.69;100.00;100043.29;110069;1246;67789;-74
2023/03/03 05:42:42;;;;;;;13.30;5.60;;;;;;;0.71;100.00;100047.94;109986;1246;72452;-73
2023/03/03 05:45:30;;;;;;;12.10;4.60;;;;;;;0.73;100.00;100050.52;110045;1246;58161;-70
2023/03/03 05:48:18;;;;;;;16.20;6.50;;;;;;;0.77;100.00;100044.05;109077;1246;1002266;-74
2023/03/03 05:51:06;;;;;;;20.90;5.30;;;;;;;0.81;100.00;100045.48;110049;1246;73791;-72
2023/03/03 05:53:54;;;;;;;14.30;5.60;;;;;;;0.83;100.00;100048.20;110033;1246;67579;-72
2023/03/03 05:56:43;;;;;;;12.50;4.90;;;;;;;0.86;100.00;100047.76;110003;1248;72850;-74
2023/03/03 05:59:31;;;;;;;14.20;5.50;;;;;;;0.89;100.00;100049.73;109240;1246;1002086;-75
2023/03/03 06:02:19;;;;;;;13.10;5.70;;;;;;;0.93;99.99;100052.02;110036;1246;59014;-74
2023/03/03 06:05:08;;;;;;;15.00;6.20;;;;;;;0.96;99.85;100060.13;110059;1247;73951;-74
2023/03/03 06:07:56;;;;;;;16.30;6.80;;;;;;;0.99;99.69;100058.96;109895;1246;67582;-73
2023/03/03 06:10:44;;;;;;;11.80;4.90;;;;;;;1.03;99.58;100059.51;109987;1246;73688;-73
2023/03/03 06:13:33;;;;;;;13.20;5.40;;;;;;;1.08;99.26;100059.32;109837;1246;58059;-75
2023/03/03 06:16:20;;;;;;;12.60;5.80;;;;;;;1.15;98.75;100059.04;110024;1246;60471;-73
2023/03/03 06:19:08;;;;;;;13.80;5.60;;;;;;;1.24;98.52;100061.31;110018;1247;72531;-74
2023/03/03 06:21:56;;;;;;;12.20;5.10;;;;;;;1.33;98.18;100064.09;110044;1248;67753;-72
2023/03/03 06:24:47;;;;;;;12.50;5.50;;;;;;;1.41;97.65;100062.60;110016;1246;70338;-76
2023/03/03 06:27:35;;;;;;;12.60;5.50;;;;;;;1.49;97.04;100064.00;110005;1247;59172;-76
2023/03/03 06:30:25;;;;;;;12.50;5.80;;;;;;;1.56;96.75;100067.05;109708;1251;59128;-74
2023/03/03 06:33:13;;;;;;;11.90;5.50;;;;;;;1.65;96.05;100068.42;109993;1246;73476;-73
2023/03/03 06:36:01;;;;;;;12.10;5.30;;;;;;;1.75;95.54;100067.16;109992;1248;68955;-72
2023/03/03 06:38:52;;;;;;;11.50;5.10;;;;;;;1.90;94.99;100059.36;110053;1248;72979;-71
2023/03/03 06:41:40;;;;;;;10.90;4.80;;;;;;;2.07;94.10;100057.59;110018;1248;58485;-73
2023/03/03 06:44:28;;;;;;;12.30;5.40;;;;;;;2.20;92.86;100057.38;110042;1247;60382;-72
2023/03/03 06:47:16;;;;;;;11.20;4.70;;;;;;;2.28;91.37;100057.07;109851;1247;73848;-71
2023/03/03 06:50:05;;;;;;;13.80;4.90;;;;;;;2.30;91.03;100057.83;110031;1246;66407;-74
2023/03/03 06:53:10;;;;;;;12.10;5.10;;;;;;;2.50;90.70;100060.98;109926;1246;73858;-75
2023/03/03 06:56:00;;;;;;;11.90;5.30;;;;;;;2.76;89.69;100064.94;109762;1246;58153;-72
2023/03/03 06:58:48;;;;;;;10.80;4.60;;;;;;;3.02;88.97;100058.81;109803;1246;60301;-74
2023/03/03 07:01:37;;;;;;;11.90;4.90;;;;;;;3.16;87.28;100066.42;109872;1246;73087;-74
2023/03/03 07:04:32;;;;;;;12.30;5.30;;;;;;;3.39;86.80;100066.38;109898;1246;66365;-74
2023/03/03 07:07:23;;;;;;;12.40;4.80;;;;;;;3.67;85.44;100072.42;110073;1246;73869;-76
2023/03/03 07:10:23;;;;;;;12.40;4.50;;;;;;;3.93;83.68;100067.94;110017;1246;58837;-75
2023/03/03 07:13:23;;;;;;;11.30;5.00;;;;;;;4.13;81.66;100067.67;109937;1246;59144;-75
2023/03/03 07:16:14;;;;;;;13.00;5.90;;;;;;;4.73;79.14;100062.98;110026;1247;73898;-73
2023/03/03 07:19:04;;;;;;;12.20;5.70;;;;;;;5.17;78.28;100072.05;109958;1247;66370;-74
2023/03/03 07:21:52;;;;;;;13.00;5.60;;;;;;;5.42;75.51;100067.30;110005;1246;72286;-74
2023/03/03 07:24:44;;;;;;;12.20;5.60;;;;;;;5.57;73.90;100062.61;109813;1247;58616;-73
2023/03/03 07:27:33;;;;;;;12.20;4.80;;;;;;;5.97;73.28;100059.44;109786;1246;60038;-74
2023/03/03 07:30:27;;;;;;;11.60;4.90;;;;;;;6.35;71.15;100058.42;110059;1246;72945;-75
2023/03/03 07:33:42;;;;;;;10.10;4.80;;;;;;;6.91;68.59;100056.82;110018;1246;69026;-75
2023/03/03 07:36:36;;;;;;;10.50;4.80;;;;;;;7.62;67.63;100064.84;110036;1246;71518;-75
2023/03/03 07:39:35;;;;;;;11.20;5.10;;;;;;;7.90;63.72;100062.84;109838;1246;58183;-74
2023/03/03 07:42:34;;;;;;;12.30;5.80;;;;;;;8.24;64.05;100056.63;109984;1246;60055;-74
2023/03/03 07:45:45;;;;;;;11.60;4.90;;;;;;;8.31;61.35;100060.08;110065;1246;74959;-76
2023/03/03 07:48:40;;;;;;;12.40;5.70;;;;;;;8.39;61.22;100067.45;110058;1246;67586;-75
2023/03/03 07:51:40;;;;;;;12.70;5.90;;;;;;;8.61;60.00;100063.84;109942;1246;71169;-77
2023/03/03 07:54:39;;;;;;;12.60;5.80;;;;;;;8.74;59.43;100061.03;109991;1247;58058;-76
2023/03/03 07:57:36;;;;;;;11.40;5.40;;;;;;;8.81;59.33;100059.31;110078;1246;58733;-76
2023/03/03 08:00:27;;;;;;;11.00;5.20;;;;;;;8.75;58.87;100057.79;109896;1246;72329;-76
2023/03/03 08:03:19;;;;;;;12.70;6.00;;;;;;;8.62;58.95;100053.38;110048;1246;66591;-75
2023/03/03 08:06:48;;;;;;;13.30;6.00;;;;;;;9.20;57.54;100051.58;109894;1246;72563;-75
2023/03/03 08:09:55;;;;;;;11.70;6.00;;;;;;;10.11;54.21;100040.45;109900;1249;58103;-74
2023/03/03 08:12:46;;;;;;;12.50;6.20;;;;;;;10.29;53.84;100043.69;110068;1246;58728;-74
2023/03/03 08:15:36;;;;;;;11.50;5.90;;;;;;;10.61;53.27;100040.38;110047;1246;72690;-72
2023/03/03 08:18:36;;;;;;;13.10;6.40;;;;;;;11.00;51.12;100040.50;110014;1246;67891;-74
2023/03/03 08:21:25;;;;;;;12.70;6.00;;;;;;;11.32;50.43;100035.82;109845;1246;72512;-74
2023/03/03 08:24:13;;;;;;;10.30;5.60;;;;;;;11.65;49.84;100033.30;110010;1246;58502;-75
2023/03/03 08:27:01;;;;;;;11.70;5.50;;;;;;;11.65;48.19;100038.27;110044;1246;59458;-75
2023/03/03 08:29:49;;;;;;;11.60;5.10;;;;;;;11.59;48.22;100032.02;110037;1246;73860;-75
2023/03/03 08:32:37;;;;;;;11.50;5.70;;;;;;;11.59;48.26;100034.65;109982;1246;68831;-74
2023/03/03 08:35:25;;;;;;;10.30;5.00;;;;;;;11.64;48.36;100033.20;109983;1246;71585;-75
2023/03/03 08:38:17;;;;;;;11.20;5.80;;;;;;;11.57;47.90;100031.45;109991;1249;58935;-75
2023/03/03 08:41:06;;;;;;;10.90;5.60;;;;;;;11.56;47.69;100032.99;110046;1246;60403;-74
2023/03/03 08:43:54;;;;;;;11.30;5.50;;;;;;;11.62;48.50;100035.54;110058;1246;73527;-73
2023/03/03 08:46:42;;;;;;;11.40;5.70;;;;;;;11.77;47.47;100035.85;109966;1246;68675;-73
2023/03/03 08:49:30;;;;;;;10.90;5.70;;;;;;;11.57;47.04;100033.12;110033;1246;72631;-76
2023/03/03 08:52:18;;;;;;;10.20;5.10;;;;;;;11.21;47.62;100034.02;110131;1246;58077;-74
2023/03/03 08:55:07;;;;;;;10.60;5.70;;;;;;;10.97;48.49;100035.08;110081;1246;58678;-73
2023/03/03 08:57:56;;;;;;;13.20;6.00;;;;;;;10.81;48.59;100040.64;110049;1246;72881;-74
2023/03/03 09:00:44;;;;;;;12.20;6.30;;;;;;;10.56;49.08;100041.48;109911;1246;67547;-73
2023/03/03 09:03:35;;;;;;;11.90;6.00;;;;;;;10.56;49.98;100043.21;110018;1246;71248;-74
2023/03/03 09:06:23;;;;;;;12.40;6.20;;;;;;;11.16;49.17;100041.71;109823;1246;58073;-72
2023/03/03 09:09:11;;;;;;;12.80;6.70;;;;;;;12.03;47.84;100035.52;110143;1246;58861;-74
2023/03/03 09:12:31;;;;;;;11.50;6.50;;;;;;;12.47;45.70;100030.70;109894;1246;75121;-74
2023/03/03 09:15:28;;;;;;;10.70;5.60;;;;;;;12.20;45.55;100028.77;109959;1246;68694;-76
2023/03/03 09:18:46;;;;;;;10.50;5.30;;;;;;;11.94;45.23;100025.61;109855;1246;73715;-74
2023/03/03 09:21:33;;;;;;;12.50;6.00;;;;;;;11.67;45.61;100024.27;109382;1253;58253;-74
2023/03/03 09:24:29;;;;;;;11.70;6.30;;;;;;;11.47;46.68;100025.53;109453;1253;60073;-74
2023/03/03 09:27:35;;;;;;;10.70;5.40;;;;;;;11.29;47.40;100021.72;109482;1253;74128;-74
2023/03/03 09:30:35;;;;;;;14.20;7.40;;;;;;;11.50;46.85;100024.60;109526;1253;68691;-76
2023/03/03 09:33:41;;;;;;;15.30;7.80;;;;;;;12.50;44.76;100020.47;109489;1253;71109;-74
2023/03/03 09:36:36;;;;;;;20.10;9.90;;;;;;;13.65;42.01;100013.23;109436;1253;58697;-76
2023/03/03 09:39:29;;;;;;;12.80;7.00;;;;;;;15.06;40.63;100001.77;109318;1253;60608;-73
2023/03/03 09:42:57;;;;;;;11.60;5.30;;;;;;;16.17;37.30;100003.48;109422;1253;73409;-73
2023/03/03 09:46:33;;;;;;;10.00;4.70;;;;;;;16.91;34.86;99996.80;109542;1253;68596;-77
2023/03/03 09:49:51;;;;;;;9.10;4.40;;;;;;;16.89;35.06;99995.58;109523;1253;71225;-73
2023/03/03 09:53:10;;;;;;;9.60;4.70;;;;;;;17.21;33.85;99989.54;109548;1253;58126;-73
2023/03/03 09:56:10;;;;;;;11.30;5.10;;;;;;;17.57;33.55;99985.77;109506;1251;60445;-75
2023/03/03 09:59:29;;;;;;;11.10;5.30;;;;;;;17.85;32.84;99983.67;109916;1246;74762;-73
2023/03/03 10:02:54;;;;;;;11.00;5.10;;;;;;;17.47;33.16;99982.43;110110;1246;66424;-74
2023/03/03 10:05:58;;;;;;;11.30;5.30;;;;;;;18.54;32.00;99973.57;109973;1246;71111;-74
2023/03/03 10:09:10;;;;;;;10.30;4.80;;;;;;;19.59;30.43;99968.77;109826;1246;58073;-73
2023/03/03 10:12:26;;;;;;;9.30;4.80;;;;;;;20.17;29.22;99967.36;110032;1249;61549;-75
2023/03/03 10:15:21;;;;;;;9.40;4.50;;;;;;;20.54;28.27;99962.91;109991;1246;75027;-74
2023/03/03 10:18:27;;;;;;;9.40;4.60;;;;;;;21.17;27.80;99968.89;109932;1246;67832;-75
2023/03/03 10:21:37;;;;;;;8.60;4.40;;;;;;;21.38;26.62;99964.32;110009;1246;72441;-75
2023/03/03 10:24:39;;;;;;;9.60;3.80;;;;;;;21.61;26.49;99963.28;110047;1246;58227;-74
2023/03/03 10:27:50;;;;;;;9.00;3.60;;;;;;;21.19;26.69;99964.70;109986;1246;60057;-72
2023/03/03 10:31:20;;;;;;;7.60;3.30;;;;;;;20.54;27.12;99966.86;110051;1246;72354;-73
2023/03/03 10:34:38;;;;;;;9.50;5.30;;;;;;;20.72;27.53;99969.23;109579;1252;69132;-72
2023/03/03 10:37:51;;;;;;;7.70;3.30;;;;;;;20.64;27.37;99967.96;109531;1251;71878;-71
2023/03/03 10:41:06;;;;;;;8.40;3.70;;;;;;;19.39;28.73;99974.46;109490;1253;58657;-72
2023/03/03 10:44:34;;;;;;;8.90;4.70;;;;;;;18.83;29.61;99971.21;109536;1252;60056;-70
2023/03/03 10:48:10;;;;;;;8.20;3.70;;;;;;;18.68;30.02;99968.17;109571;1252;74525;-73
2023/03/03 10:51:21;;;;;;;8.30;4.10;;;;;;;19.39;29.27;99966.45;109061;1258;68512;-73
2023/03/03 10:54:54;;;;;;;8.90;3.60;;;;;;;19.63;28.75;99967.67;109003;1258;72774;-74
2023/03/03 10:58:22;;;;;;;8.30;3.80;;;;;;;19.72;28.51;99967.82;108982;1258;58915;-73
2023/03/03 11:01:27;;;;;;;8.40;3.90;;;;;;;20.87;27.95;99962.61;109032;1258;59216;-73
2023/03/03 11:05:02;;;;;;;9.00;3.80;;;;;;;20.99;26.99;99950.73;109113;1254;74602;-74
2023/03/03 11:08:16;;;;;;;8.00;3.80;;;;;;;21.07;27.23;99956.41;109362;1254;66442;-72
2023/03/03 11:11:39;;;;;;;8.90;4.00;;;;;;;21.48;26.53;99948.88;109229;1254;72717;-74
2023/03/03 11:14:39;;;;;;;8.50;3.80;;;;;;;21.57;26.18;99939.46;109150;1254;59018;-74
2023/03/03 11:18:10;;;;;;;8.30;3.40;;;;;;;21.20;26.15;99941.52;109339;1254;58953;-73
2023/03/03 11:21:37;;;;;;;9.00;3.70;;;;;;;20.45;27.29;99940.11;109313;1254;73959;-74
2023/03/03 11:24:43;;;;;;;7.80;3.10;;;;;;;19.18;28.99;99931.27;109374;1254;68811;-74
2023/03/03 11:27:59;;;;;;;7.80;3.70;;;;;;;19.50;28.82;99926.62;109939;1246;71376;-73
2023/03/03 11:31:03;;;;;;;8.50;3.50;;;;;;;19.41;29.06;99931.79;110060;1246;58144;-73
2023/03/03 11:34:25;;;;;;;7.90;3.60;;;;;;;18.44;30.19;99933.20;109980;1246;60323;-73
2023/03/03 11:37:52;;;;;;;10.30;3.80;;;;;;;18.26;30.83;99923.35;109984;1246;74821;-74
2023/03/03 11:41:06;;;;;;;8.50;3.70;;;;;;;17.98;31.16;99911.80;110063;1246;66532;-72
2023/03/03 11:44:16;;;;;;;9.20;3.70;;;;;;;18.18;31.30;99902.37;110093;1246;73089;-71
2023/03/03 11:48:05;;;;;;;8.60;3.80;;;;;;;17.47;31.85;99902.96;110028;1246;58557;-73
2023/03/03 11:51:07;;;;;;;8.80;3.40;;;;;;;16.98;32.73;99901.92;109073;1257;61058;-74
2023/03/03 11:54:04;;;;;;;7.60;3.40;;;;;;;17.18;32.93;99892.98;109047;1257;71891;-75
2023/03/03 11:57:13;;;;;;;8.30;2.70;;;;;;;17.39;32.68;99878.20;109052;1257;66435;-75
2023/03/03 12:00:19;;;;;;;10.10;3.90;;;;;;;17.48;32.05;99871.95;109102;1257;72533;-77
2023/03/03 12:03:56;;;;;;;8.00;3.20;;;;;;;17.72;31.48;99872.55;109066;1257;58108;-74
2023/03/03 12:07:16;;;;;;;7.20;2.50;;;;;;;17.52;31.22;99862.63;109110;1257;60875;-74
2023/03/03 12:10:36;;;;;;;7.90;2.50;;;;;;;17.36;31.40;99863.27;109097;1258;73779;-74
2023/03/03 12:13:57;;;;;;;7.80;2.30;;;;;;;16.77;31.89;99864.92;109139;1257;68885;-73
2023/03/03 12:16:56;;;;;;;6.20;1.70;;;;;;;16.14;32.42;99864.59;109079;1257;71438;-75
2023/03/03 12:20:21;;;;;;;6.00;1.60;;;;;;;15.83;32.69;99858.77;109085;1257;58288;-75
2023/03/03 12:23:26;;;;;;;7.20;1.60;;;;;;;15.10;33.25;99852.72;109095;1258;59967;-72
2023/03/03 12:27:01;;;;;;;7.50;1.90;;;;;;;14.88;33.82;99846.55;109263;1246;74855;-74
2023/03/03 12:30:16;;;;;;;7.20;1.60;;;;;;;14.84;33.65;99844.91;110073;1246;66735;-74
2023/03/03 12:34:04;;;;;;;5.60;1.60;;;;;;;14.65;33.44;99844.34;110061;1246;71471;-75
2023/03/03 12:37:08;;;;;;;5.60;1.60;;;;;;;14.25;34.19;99836.00;109268;1255;58157;-74
2023/03/03 12:40:17;;;;;;;7.00;1.70;;;;;;;13.89;34.67;99827.38;109360;1254;58769;-74
2023/03/03 12:43:18;;;;;;;6.00;1.60;;;;;;;13.58;35.73;99834.55;109249;1254;73943;-74
2023/03/03 12:46:31;;;;;;;8.90;1.80;;;;;;;13.15;36.32;99835.80;109306;1254;66479;-74
2023/03/03 12:49:19;;;;;;;6.70;1.40;;;;;;;12.59;37.21;99836.60;109194;1254;72669;-75
2023/03/03 12:52:59;;;;;;;6.20;1.60;;;;;;;11.96;37.94;99836.75;109339;1254;58196;-75
2023/03/03 12:59:47;;;;;;;6.30;1.60;;;;;;;10.45;40.14;99824.65;106296;1288;599558;-71
2023/03/03 13:03:03;;;;;;;6.00;1.40;;;;;;;9.97;41.28;99819.25;108404;1266;58534;-71
2023/03/03 13:06:23;;;;;;;5.50;1.40;;;;;;;9.38;42.37;99826.30;106768;1272;60690;-75
2023/03/03 13:09:43;;;;;;;6.90;1.90;;;;;;;9.09;43.57;99827.77;105225;1271;72205;-74
2023/03/03 13:12:37;;;;;;;6.00;1.80;;;;;;;8.93;43.72;99821.38;104776;1267;185107;-73
2023/03/03 13:16:00;;;;;;;6.20;1.70;;;;;;;8.70;43.65;99812.82;104997;1265;73713;-73
2023/03/03 13:19:15;;;;;;;5.80;1.50;;;;;;;8.42;44.72;99815.15;105177;1269;59257;-73
2023/03/03 13:22:23;;;;;;;6.20;1.60;;;;;;;8.35;44.78;99808.42;105080;1264;60121;-73
2023/03/03 13:26:06;;;;;;;9.10;1.80;;;;;;;8.22;44.10;99813.77;105310;1265;70393;-72
2023/03/03 13:29:14;;;;;;;6.60;1.60;;;;;;;8.10;43.76;99810.38;104510;1279;68781;-73
2023/03/03 13:32:16;;;;;;;6.10;1.50;;;;;;;8.04;44.01;99812.42;104880;1266;72939;-74
2023/03/03 13:35:28;;;;;;;6.60;1.90;;;;;;;7.88;44.13;99812.24;104810;1269;59456;-74
2023/03/03 13:38:29;;;;;;;5.60;1.30;;;;;;;7.72;44.80;99814.27;104879;1270;61047;-74